KJYM

Details ICAO KJYM
Name HILLSDALE MUNI
Region United States
Timezone America/Detroit (UTC-5.0)
Plans Departing 0
Arriving 1
Stats Elevation 1,182 ft / 360 m (AMSL)
Location 41.921261° -84.585763°
Runways 1
Magnetic Variation 6.309° W
Sunrise 2017-12-18 13:02:36 UTC / 2017-12-18 08:02:36 Local
Sunset 2017-12-18 22:10:14 UTC / 2017-12-18 17:10:14 Local
Advertisement - Login to hide

Runways

ID Width Length Bearing (true) Bearing (mag) Surface Threshold Offset Overrun Length
10 75 ft / 23 m 3,991 ft / 1,216 m 93.55° 99.86° Asphalt 0 ft / 0 m 0 ft / 0 m
28 75 ft / 23 m 3,991 ft / 1,216 m 273.56° 279.87° Asphalt 0 ft / 0 m 0 ft / 0 m

Map

Weather


0- 5 10 15 20 25 30 35+ Temperature / ° C

Clouds and Precipitation
Forecast for 2017-12-18 18:00 UTC. Updated 2 hours ago

Ground ~20,000 ft ~40,000 ft Winds

METAR

KJYM 181835Z AUTO 22006KT 4SM BR OVC005 04/03 A2987 RMK AO2

TAF

Not found

Frequencies

Recorded 121.02 MHz AWOS 3
Approach 134.35 MHz TOLEDO APP/DEP
Unicom 122.80 MHz CTAF/UNICOM
Warning: Do not use this data for real-world aviation or navigation. No guarantee of current accuracy is given.